createdAt,value
2023-02-13T00:00:57.918Z,5.23
2023-02-13T00:03:24.879Z,5.20
2023-02-13T00:05:51.604Z,5.40
2023-02-13T00:08:18.314Z,5.63
2023-02-13T00:10:44.966Z,5.20
2023-02-13T00:13:11.651Z,6.17
2023-02-13T00:15:40.670Z,5.23
2023-02-13T00:18:07.350Z,5.43
2023-02-13T00:20:34.057Z,5.70
2023-02-13T00:23:00.806Z,5.60
2023-02-13T00:25:27.614Z,5.50
2023-02-13T00:27:56.683Z,6.17
2023-02-13T00:30:28.122Z,6.20
2023-02-13T00:32:57.246Z,6.80
2023-02-13T00:35:23.866Z,6.73
2023-02-13T00:37:50.553Z,6.37
2023-02-13T00:40:17.339Z,6.57
2023-02-13T00:42:43.984Z,6.07
2023-02-13T00:45:13.028Z,6.50
2023-02-13T00:47:39.726Z,6.13
2023-02-13T00:50:06.910Z,6.20
2023-02-13T00:52:36.060Z,5.90
2023-02-13T00:55:02.734Z,7.30
2023-02-13T00:57:31.126Z,6.57
2023-02-13T01:00:00.431Z,6.40
2023-02-13T01:02:29.519Z,7.10
2023-02-13T01:04:56.147Z,6.67
2023-02-13T01:07:22.885Z,6.60
2023-02-13T01:09:49.537Z,6.00
2023-02-13T01:12:16.202Z,6.10
2023-02-13T01:14:42.893Z,5.97
2023-02-13T01:17:09.549Z,6.00
2023-02-13T01:19:40.220Z,6.40
2023-02-13T01:22:08.470Z,6.17
2023-02-13T01:24:35.173Z,6.37
2023-02-13T01:27:02.485Z,6.33
2023-02-13T01:29:29.607Z,6.17
2023-02-13T01:31:59.037Z,6.63
2023-02-13T01:34:28.114Z,7.57
2023-02-13T01:36:54.749Z,6.10
2023-02-13T01:39:23.773Z,6.00
2023-02-13T01:41:52.745Z,6.30
2023-02-13T01:44:54.483Z,6.30
2023-02-13T01:47:45.234Z,5.90
2023-02-13T01:50:28.778Z,6.20
2023-02-13T01:53:22.513Z,6.10
2023-02-13T01:55:53.800Z,6.10
2023-02-13T01:58:25.870Z,6.03
2023-02-13T02:00:52.621Z,6.63
2023-02-13T02:03:31.733Z,6.73
2023-02-13T02:06:00.702Z,5.60
2023-02-13T02:08:28.467Z,6.20
2023-02-13T02:10:58.254Z,5.77
2023-02-13T02:13:26.709Z,6.10
2023-02-13T02:15:53.823Z,6.20
2023-02-13T02:18:23.276Z,5.93
2023-02-13T02:21:10.892Z,6.00
2023-02-13T02:24:23.367Z,5.53
2023-02-13T02:27:07.772Z,5.73
2023-02-13T02:29:51.966Z,5.30
2023-02-13T02:32:43.663Z,5.53
2023-02-13T02:35:36.895Z,5.43
2023-02-13T02:38:28.548Z,5.63
2023-02-13T02:41:38.498Z,4.83
2023-02-13T02:44:32.099Z,5.47
2023-02-13T02:47:23.458Z,5.63
2023-02-13T02:50:05.685Z,5.20
2023-02-13T02:52:51.239Z,5.20
2023-02-13T02:55:35.321Z,5.53
2023-02-13T02:58:23.448Z,6.35
2023-02-13T03:01:11.620Z,5.67
2023-02-13T03:03:57.331Z,5.53
2023-02-13T03:06:36.039Z,5.27
2023-02-13T03:09:25.318Z,5.03
2023-02-13T03:12:16.562Z,5.63
2023-02-13T03:14:45.591Z,5.10
2023-02-13T03:17:34.649Z,4.90
2023-02-13T03:20:20.023Z,4.90
2023-02-13T03:23:16.681Z,5.10
2023-02-13T03:26:03.346Z,4.73
2023-02-13T03:29:03.700Z,4.80
2023-02-13T03:31:42.382Z,4.43
2023-02-13T03:34:14.647Z,4.70
2023-02-13T03:37:21.882Z,4.63
2023-02-13T03:40:08.175Z,5.30
2023-02-13T03:42:39.988Z,5.20
2023-02-13T03:45:29.004Z,4.70
2023-02-13T03:48:21.113Z,4.90
2023-02-13T03:50:48.024Z,4.40
2023-02-13T03:53:16.011Z,5.50
2023-02-13T03:56:04.674Z,4.80
2023-02-13T03:58:53.624Z,4.87
2023-02-13T04:01:26.820Z,5.40
2023-02-13T04:04:28.806Z,5.23
2023-02-13T04:07:01.185Z,4.57
2023-02-13T04:09:29.316Z,5.00
2023-02-13T04:12:00.038Z,4.57
2023-02-13T04:14:50.509Z,4.33
2023-02-13T04:17:32.571Z,4.90
2023-02-13T04:20:04.395Z,4.93
2023-02-13T04:22:31.797Z,4.47
2023-02-13T04:25:00.859Z,4.07
2023-02-13T04:27:29.086Z,5.00
2023-02-13T04:29:55.815Z,4.27
2023-02-13T04:32:27.328Z,4.60
2023-02-13T04:34:53.969Z,4.20
2023-02-13T04:37:23.103Z,4.70
2023-02-13T04:39:49.770Z,4.77
2023-02-13T04:42:16.462Z,5.20
2023-02-13T04:44:43.099Z,5.13
2023-02-13T04:47:14.438Z,4.67
2023-02-13T04:49:43.236Z,4.40
2023-02-13T04:52:09.979Z,4.63
2023-02-13T04:54:36.608Z,4.83
2023-02-13T04:57:03.364Z,4.70
2023-02-13T04:59:30.025Z,4.77
2023-02-13T05:01:59.247Z,4.47
2023-02-13T05:04:28.994Z,4.83
2023-02-13T05:06:55.772Z,5.03
2023-02-13T05:09:22.525Z,4.57
2023-02-13T05:11:52.881Z,4.93
2023-02-13T05:14:19.693Z,5.33
2023-02-13T05:16:47.019Z,5.23
2023-02-13T05:19:13.697Z,4.83
2023-02-13T05:22:01.599Z,5.07
2023-02-13T05:24:30.814Z,4.87
2023-02-13T05:26:59.713Z,5.30
2023-02-13T05:29:26.687Z,4.60
2023-02-13T05:31:58.284Z,5.00
2023-02-13T05:34:27.123Z,5.17
2023-02-13T05:36:54.704Z,5.13
2023-02-13T05:39:22.024Z,5.23
2023-02-13T05:41:51.542Z,5.20
2023-02-13T05:44:18.417Z,5.50
2023-02-13T05:46:45.762Z,4.83
2023-02-13T05:49:14.133Z,5.20
2023-02-13T05:51:42.014Z,5.00
2023-02-13T05:54:09.303Z,4.63
2023-02-13T05:56:38.187Z,5.27
2023-02-13T05:59:05.025Z,5.07
2023-02-13T06:01:31.710Z,5.23
2023-02-13T06:03:59.623Z,4.90
2023-02-13T06:06:29.419Z,4.67
2023-02-13T06:08:56.089Z,5.03
2023-02-13T06:11:22.863Z,5.00
2023-02-13T06:13:50.622Z,5.13
2023-02-13T06:16:17.474Z,5.13
2023-02-13T06:18:44.243Z,4.97
2023-02-13T06:21:10.961Z,4.73
2023-02-13T06:23:37.741Z,5.40
2023-02-13T06:26:08.822Z,5.03
2023-02-13T06:28:36.756Z,4.93
2023-02-13T06:31:04.266Z,5.55
2023-02-13T06:33:33.215Z,5.00
2023-02-13T06:36:02.173Z,5.20
2023-02-13T06:38:32.069Z,4.63
2023-02-13T06:41:02.396Z,4.60
2023-02-13T06:43:29.262Z,4.93
2023-02-13T06:45:55.944Z,4.95
2023-02-13T06:48:23.125Z,4.63
2023-02-13T06:50:52.112Z,4.80
2023-02-13T06:53:24.531Z,3.97
2023-02-13T06:55:57.305Z,4.40
2023-02-13T06:58:24.981Z,4.00
2023-02-13T07:00:54.397Z,4.40
2023-02-13T07:03:23.474Z,4.40
2023-02-13T07:05:52.360Z,4.47
2023-02-13T07:08:19.491Z,4.10
2023-02-13T07:10:48.575Z,4.47
2023-02-13T07:13:15.529Z,3.90
2023-02-13T07:15:42.329Z,4.17
2023-02-13T07:18:09.272Z,4.10
2023-02-13T07:20:36.118Z,4.27
2023-02-13T07:23:04.632Z,3.77
2023-02-13T07:25:31.720Z,4.00
2023-02-13T07:28:07.609Z,3.90
2023-02-13T07:30:34.946Z,4.20
2023-02-13T07:33:03.179Z,4.53
2023-02-13T07:35:29.912Z,4.10
2023-02-13T07:37:56.793Z,4.60
2023-02-13T07:40:25.755Z,3.87
2023-02-13T07:42:52.459Z,4.67
2023-02-13T07:45:21.434Z,5.30
2023-02-13T07:47:48.136Z,4.90
2023-02-13T07:50:14.929Z,4.80
2023-02-13T07:52:44.108Z,4.87
2023-02-13T07:55:13.077Z,5.07
2023-02-13T07:57:39.766Z,5.43
2023-02-13T08:00:09.631Z,6.20
2023-02-13T08:02:36.298Z,6.87
2023-02-13T08:05:03.059Z,6.80
2023-02-13T08:07:32.398Z,8.07
2023-02-13T08:10:20.249Z,7.60
2023-02-13T08:12:47.164Z,6.93
2023-02-13T08:15:18.050Z,7.90
2023-02-13T08:17:44.800Z,8.40
2023-02-13T08:20:12.057Z,8.40
2023-02-13T08:22:41.294Z,8.50
2023-02-13T08:25:10.488Z,8.67
2023-02-13T08:27:40.428Z,8.47
2023-02-13T08:30:08.073Z,8.50
2023-02-13T08:32:44.819Z,8.63
2023-02-13T08:35:29.545Z,8.90
2023-02-13T08:37:56.456Z,8.60
2023-02-13T08:40:26.103Z,9.47
2023-02-13T08:42:57.538Z,8.73
2023-02-13T08:45:27.127Z,9.60
2023-02-13T08:47:59.367Z,9.10
2023-02-13T08:50:27.585Z,8.67
2023-02-13T08:52:59.810Z,7.77
2023-02-13T08:55:28.616Z,7.47
2023-02-13T08:57:55.333Z,7.87
2023-02-13T09:00:22.321Z,7.67
2023-02-13T09:02:51.649Z,7.00
2023-02-13T09:05:21.106Z,7.07
2023-02-13T09:07:47.765Z,7.13
2023-02-13T09:10:19.492Z,6.90
2023-02-13T09:12:54.868Z,7.17
2023-02-13T09:15:23.942Z,7.07
2023-02-13T09:17:52.822Z,7.10
2023-02-13T09:20:21.835Z,6.87
2023-02-13T09:22:50.705Z,6.87
2023-02-13T09:25:17.539Z,7.07
2023-02-13T09:27:46.873Z,7.00
2023-02-13T09:30:22.957Z,6.30
2023-02-13T09:32:53.099Z,6.10
2023-02-13T09:35:20.952Z,6.67
2023-02-13T09:37:50.517Z,6.40
2023-02-13T09:40:39.840Z,6.63
2023-02-13T09:43:47.677Z,6.07
2023-02-13T09:46:17.472Z,5.97
2023-02-13T09:48:48.450Z,6.20
2023-02-13T09:51:19.439Z,5.73
2023-02-13T09:53:53.207Z,5.60
2023-02-13T09:56:50.055Z,5.33
2023-02-13T09:59:48.405Z,5.83
2023-02-13T10:02:43.242Z,5.87
2023-02-13T10:05:22.063Z,6.47
2023-02-13T10:08:00.507Z,6.10
2023-02-13T10:10:43.677Z,6.37
2023-02-13T10:13:35.047Z,6.10
2023-02-13T10:16:28.412Z,5.57
2023-02-13T10:19:13.505Z,6.00
2023-02-13T10:21:54.033Z,5.70
2023-02-13T10:24:36.417Z,5.07
2023-02-13T10:27:16.028Z,6.03
2023-02-13T10:30:09.533Z,5.80
2023-02-13T10:32:39.843Z,5.83
2023-02-13T10:35:23.327Z,6.20
2023-02-13T10:37:54.708Z,6.10
2023-02-13T10:40:21.912Z,5.90
2023-02-13T10:43:09.582Z,6.47
2023-02-13T10:45:59.538Z,5.83
2023-02-13T10:49:10.493Z,5.40
2023-02-13T10:51:49.360Z,6.00
2023-02-13T10:54:26.301Z,5.57
2023-02-13T10:57:15.143Z,5.93
2023-02-13T11:00:01.637Z,5.93
2023-02-13T11:02:34.595Z,5.90
2023-02-13T11:05:03.720Z,5.47
2023-02-13T11:07:32.046Z,5.80
2023-02-13T11:10:04.237Z,5.43
2023-02-13T11:12:34.815Z,5.47
2023-02-13T11:15:05.745Z,5.27
2023-02-13T11:17:36.226Z,5.60
2023-02-13T11:20:07.526Z,5.50
2023-02-13T11:22:37.739Z,5.87
2023-02-13T11:25:17.013Z,6.00
2023-02-13T11:27:44.307Z,5.40
2023-02-13T11:30:37.738Z,5.10
2023-02-13T11:33:22.067Z,5.50
2023-02-13T11:36:08.699Z,6.40
2023-02-13T11:38:35.704Z,5.87
2023-02-13T11:41:05.980Z,5.93
2023-02-13T11:44:00.995Z,6.73
2023-02-13T11:46:48.901Z,5.67
2023-02-13T11:49:23.352Z,6.10
2023-02-13T11:51:55.221Z,6.00
2023-02-13T11:54:30.406Z,6.50
2023-02-13T11:57:33.523Z,6.80
2023-02-13T12:00:20.516Z,6.53
2023-02-13T12:02:50.340Z,6.43
2023-02-13T12:05:23.496Z,6.60
2023-02-13T12:07:55.460Z,5.70
2023-02-13T12:10:23.845Z,5.60
2023-02-13T12:12:58.276Z,6.00
2023-02-13T12:15:28.067Z,7.10
2023-02-13T12:18:08.534Z,6.97
2023-02-13T12:20:59.801Z,6.17
2023-02-13T12:23:33.159Z,6.67
2023-02-13T12:26:26.727Z,6.13
2023-02-13T12:29:02.533Z,6.03
2023-02-13T12:31:36.231Z,7.10
2023-02-13T12:34:29.705Z,7.07
2023-02-13T12:37:22.786Z,7.60
2023-02-13T12:39:52.607Z,6.80
2023-02-13T12:42:43.428Z,6.63
2023-02-13T12:45:17.794Z,6.80
2023-02-13T12:47:59.920Z,7.10
2023-02-13T12:50:32.814Z,6.70
2023-02-13T12:53:41.599Z,6.60
2023-02-13T12:56:09.890Z,6.90
2023-02-13T12:58:48.264Z,7.20
2023-02-13T13:01:20.329Z,6.70
2023-02-13T13:04:01.477Z,6.23
2023-02-13T13:06:36.512Z,6.95
2023-02-13T13:09:24.191Z,6.13
2023-02-13T13:12:12.070Z,6.30
2023-02-13T13:14:53.699Z,6.00
2023-02-13T13:17:44.931Z,5.53
2023-02-13T13:20:14.591Z,5.80
2023-02-13T13:22:44.779Z,6.20
2023-02-13T13:25:20.622Z,5.57
2023-02-13T13:27:51.915Z,5.40
2023-02-13T13:30:35.356Z,5.97
2023-02-13T13:33:19.588Z,5.80
2023-02-13T13:36:05.006Z,5.60
2023-02-13T13:38:34.035Z,5.27
2023-02-13T13:41:14.192Z,5.77
2023-02-13T13:43:52.586Z,5.80
2023-02-13T13:46:38.548Z,5.10
2023-02-13T13:49:11.483Z,5.50
2023-02-13T13:51:38.719Z,5.17
2023-02-13T13:54:05.794Z,5.03
2023-02-13T13:56:51.559Z,5.13
2023-02-13T13:59:19.592Z,5.40
2023-02-13T14:01:46.306Z,5.17
2023-02-13T14:04:33.374Z,5.20
2023-02-13T14:07:00.424Z,4.83
2023-02-13T14:09:27.520Z,5.70
2023-02-13T14:11:56.575Z,5.40
2023-02-13T14:14:31.674Z,6.35
2023-02-13T14:17:04.587Z,5.60
2023-02-13T14:19:37.613Z,6.03
2023-02-13T14:22:19.971Z,5.80
2023-02-13T14:24:54.291Z,5.50
2023-02-13T14:27:22.833Z,5.57
2023-02-13T14:29:50.379Z,4.97
2023-02-13T14:32:27.393Z,5.23
2023-02-13T14:34:56.353Z,5.50
2023-02-13T14:37:35.698Z,5.93
2023-02-13T14:40:20.622Z,5.13
2023-02-13T14:43:09.564Z,5.40
2023-02-13T14:45:47.816Z,5.63
2023-02-13T14:48:15.650Z,5.90
2023-02-13T14:50:54.122Z,5.03
2023-02-13T14:53:30.725Z,5.50
2023-02-13T14:56:12.954Z,5.63
2023-02-13T14:58:56.970Z,5.40
2023-02-13T15:01:56.891Z,6.20
2023-02-13T15:04:42.536Z,5.40
2023-02-13T15:07:17.876Z,5.60
2023-02-13T15:09:58.735Z,6.07
2023-02-13T15:12:28.556Z,5.97
2023-02-13T15:14:58.242Z,5.90
2023-02-13T15:17:38.693Z,5.90
2023-02-13T15:20:20.228Z,5.43
2023-02-13T15:22:47.275Z,5.20
2023-02-13T15:25:38.962Z,5.50
2023-02-13T15:28:08.415Z,5.67
2023-02-13T15:30:40.296Z,5.93
2023-02-13T15:33:24.360Z,4.53
2023-02-13T15:36:03.649Z,5.40
2023-02-13T15:38:30.257Z,4.90
2023-02-13T15:41:07.784Z,5.20
2023-02-13T15:43:39.826Z,4.93
2023-02-13T15:46:30.415Z,5.80
2023-02-13T15:49:16.648Z,5.90
2023-02-13T15:51:44.408Z,5.60
2023-02-13T15:54:31.921Z,6.03
2023-02-13T15:57:11.199Z,6.67
2023-02-13T15:59:39.524Z,5.90
2023-02-13T16:02:17.177Z,6.23
2023-02-13T16:04:47.173Z,6.17
2023-02-13T16:07:17.165Z,6.07
2023-02-13T16:09:46.256Z,7.73
2023-02-13T16:12:33.213Z,8.15
2023-02-13T16:15:05.681Z,7.27
2023-02-13T16:17:40.184Z,7.10
2023-02-13T16:20:11.512Z,6.30
2023-02-13T16:22:45.328Z,7.13
2023-02-13T16:25:26.861Z,7.20
2023-02-13T16:27:57.646Z,7.23
2023-02-13T16:30:40.221Z,7.17
2023-02-13T16:33:22.239Z,8.40
2023-02-13T16:36:16.179Z,8.10
2023-02-13T16:38:47.119Z,7.10
2023-02-13T16:41:22.109Z,7.77
2023-02-13T16:43:58.668Z,7.40
2023-02-13T16:46:25.403Z,7.90
2023-02-13T16:49:03.499Z,7.93
2023-02-13T16:51:30.227Z,7.40
2023-02-13T16:54:21.861Z,6.83
2023-02-13T16:56:53.908Z,7.30
2023-02-13T16:59:33.263Z,7.70
2023-02-13T17:02:24.549Z,7.00
2023-02-13T17:04:55.162Z,6.90
2023-02-13T17:07:28.392Z,6.80
2023-02-13T17:10:03.069Z,7.07
2023-02-13T17:12:35.892Z,6.40
2023-02-13T17:15:02.767Z,6.87
2023-02-13T17:17:31.626Z,6.10
2023-02-13T17:20:02.815Z,5.97
2023-02-13T17:22:41.708Z,7.15
2023-02-13T17:25:20.675Z,6.47
2023-02-13T17:27:48.556Z,6.67
2023-02-13T17:30:23.369Z,5.63
2023-02-13T17:32:53.858Z,6.00
2023-02-13T17:35:23.037Z,5.97
2023-02-13T17:37:49.820Z,6.60
2023-02-13T17:40:21.565Z,5.83
2023-02-13T17:42:54.521Z,5.90
2023-02-13T17:45:27.018Z,6.70
2023-02-13T17:47:57.806Z,5.67
2023-02-13T17:50:28.282Z,5.63
2023-02-13T17:52:57.782Z,5.40
2023-02-13T17:55:27.325Z,5.97
2023-02-13T17:57:58.369Z,5.47
2023-02-13T18:00:29.071Z,5.23
2023-02-13T18:02:56.705Z,5.90
2023-02-13T18:05:23.675Z,5.87
2023-02-13T18:07:50.490Z,5.73
2023-02-13T18:10:27.404Z,6.07
2023-02-13T18:13:03.894Z,5.63
2023-02-13T18:15:37.654Z,5.57
2023-02-13T18:18:04.744Z,6.03
2023-02-13T18:20:33.657Z,5.73
2023-02-13T18:23:00.411Z,5.97
2023-02-13T18:25:29.411Z,6.13
2023-02-13T18:27:56.357Z,5.77
2023-02-13T18:30:23.289Z,5.70
2023-02-13T18:32:58.811Z,5.90
2023-02-13T18:35:27.921Z,6.23
2023-02-13T18:37:54.605Z,6.03
2023-02-13T18:40:23.740Z,6.40
2023-02-13T18:42:52.084Z,6.17
2023-02-13T18:45:19.081Z,6.33
2023-02-13T18:47:48.015Z,5.73
2023-02-13T18:50:16.048Z,6.03
2023-02-13T18:52:42.851Z,5.83
2023-02-13T18:55:12.070Z,4.97
2023-02-13T18:57:45.409Z,6.10
2023-02-13T19:00:14.268Z,5.87
2023-02-13T19:02:41.349Z,6.30
2023-02-13T19:05:08.763Z,5.30
2023-02-13T19:07:38.154Z,5.50
2023-02-13T19:10:07.839Z,5.80
2023-02-13T19:12:34.935Z,5.97
2023-02-13T19:15:01.964Z,5.87
2023-02-13T19:17:31.560Z,6.60
2023-02-13T19:20:01.150Z,6.37
2023-02-13T19:22:28.282Z,6.30
2023-02-13T19:24:55.366Z,5.77
2023-02-13T19:27:22.432Z,5.87
2023-02-13T19:29:51.774Z,6.00
2023-02-13T19:32:19.538Z,6.03
2023-02-13T19:34:46.991Z,5.60
2023-02-13T19:37:14.161Z,5.93
2023-02-13T19:39:43.785Z,5.90
2023-02-13T19:42:10.879Z,6.63
2023-02-13T19:44:39.711Z,6.37
2023-02-13T19:47:08.618Z,5.57
2023-02-13T19:49:35.730Z,6.17
2023-02-13T19:52:03.518Z,6.43
2023-02-13T19:54:30.217Z,6.30
2023-02-13T19:57:00.398Z,7.00
2023-02-13T19:59:27.894Z,6.13
2023-02-13T20:01:57.521Z,5.57
2023-02-13T20:04:24.969Z,5.73
2023-02-13T20:06:58.441Z,6.10
2023-02-13T20:09:25.650Z,6.10
2023-02-13T20:11:57.760Z,6.40
2023-02-13T20:14:24.806Z,6.23
2023-02-13T20:16:54.517Z,5.60
2023-02-13T20:19:24.235Z,6.23
2023-02-13T20:21:51.430Z,6.65
2023-02-13T20:24:18.484Z,6.63
2023-02-13T20:26:45.576Z,6.30
2023-02-13T20:29:12.665Z,5.90
2023-02-13T20:31:42.300Z,6.00
2023-02-13T20:34:09.806Z,6.57
2023-02-13T20:36:37.054Z,6.95
2023-02-13T20:39:05.741Z,7.13
2023-02-13T20:41:36.811Z,6.50
2023-02-13T20:44:07.284Z,7.23
2023-02-13T20:46:35.805Z,6.20
2023-02-13T20:49:05.135Z,6.70
2023-02-13T20:51:34.227Z,6.47
2023-02-13T20:54:03.607Z,6.37
2023-02-13T20:56:30.650Z,6.57
2023-02-13T20:59:00.640Z,6.33
2023-02-13T21:01:35.502Z,6.13
2023-02-13T21:04:04.485Z,6.30
2023-02-13T21:06:34.467Z,6.53
2023-02-13T21:09:02.634Z,6.13
2023-02-13T21:11:29.751Z,6.63
2023-02-13T21:13:57.548Z,6.60
2023-02-13T21:16:27.729Z,6.30
2023-02-13T21:18:57.721Z,7.63
2023-02-13T21:21:31.255Z,6.90
2023-02-13T21:24:04.365Z,6.47
2023-02-13T21:26:34.923Z,6.70
2023-02-13T21:29:04.375Z,7.93
2023-02-13T21:31:39.331Z,5.80
2023-02-13T21:34:11.735Z,6.43
2023-02-13T21:36:39.123Z,6.87
2023-02-13T21:39:07.913Z,7.00
2023-02-13T21:41:34.642Z,6.73
2023-02-13T21:44:01.384Z,6.57
2023-02-13T21:46:30.910Z,7.70
2023-02-13T21:49:03.678Z,7.37
2023-02-13T21:51:32.551Z,6.83
2023-02-13T21:54:02.837Z,7.87
2023-02-13T21:56:34.214Z,7.10
2023-02-13T21:59:01.806Z,6.73
2023-02-13T22:01:31.013Z,6.60
2023-02-13T22:04:03.131Z,7.57
2023-02-13T22:06:31.402Z,7.83
2023-02-13T22:09:12.172Z,8.30
2023-02-13T22:11:39.152Z,7.17
2023-02-13T22:14:15.828Z,7.83
2023-02-13T22:16:46.228Z,7.30
2023-02-13T22:19:14.664Z,7.50
2023-02-13T22:21:44.009Z,7.33
2023-02-13T22:24:11.881Z,6.93
2023-02-13T22:26:41.087Z,7.00
2023-02-13T22:29:14.215Z,8.13
2023-02-13T22:31:41.419Z,7.10
2023-02-13T22:34:13.326Z,7.73
2023-02-13T22:36:40.882Z,7.20
2023-02-13T22:39:09.720Z,7.67
2023-02-13T22:41:37.000Z,6.70
2023-02-13T22:44:03.835Z,7.83
2023-02-13T22:46:32.081Z,7.53
2023-02-13T22:48:59.689Z,7.13
2023-02-13T22:51:32.988Z,7.77
2023-02-13T22:54:02.794Z,7.37
2023-02-13T22:56:30.833Z,7.40
2023-02-13T22:58:57.875Z,7.47
2023-02-13T23:01:26.356Z,7.40
2023-02-13T23:03:53.419Z,8.17
2023-02-13T23:06:23.419Z,8.10
2023-02-13T23:08:52.695Z,8.10
2023-02-13T23:11:39.410Z,9.85
2023-02-13T23:14:09.970Z,9.00
2023-02-13T23:16:56.769Z,9.13
2023-02-13T23:19:25.401Z,9.40
2023-02-13T23:21:52.107Z,10.27
2023-02-13T23:24:21.350Z,10.50
2023-02-13T23:26:48.163Z,10.53
2023-02-13T23:29:17.241Z,10.50
2023-02-13T23:31:44.074Z,9.30
2023-02-13T23:34:13.368Z,10.43
2023-02-13T23:36:40.029Z,10.93
2023-02-13T23:39:08.962Z,10.17
2023-02-13T23:41:38.024Z,10.07
2023-02-13T23:44:06.954Z,9.83
2023-02-13T23:46:35.959Z,10.00
2023-02-13T23:49:02.707Z,9.70
2023-02-13T23:51:29.402Z,10.03
2023-02-13T23:54:00.347Z,10.33
2023-02-13T23:56:29.704Z,10.07
2023-02-13T23:58:57.011Z,10.27
